createdAt,value
2022-12-20T00:01:47.434Z,101204.44
2022-12-20T00:04:15.347Z,101202.63
2022-12-20T00:06:43.333Z,101189.59
2022-12-20T00:09:12.551Z,101188.84
2022-12-20T00:11:41.517Z,101186.22
2022-12-20T00:14:10.382Z,101194.47
2022-12-20T00:16:38.966Z,101189.50
2022-12-20T00:19:07.882Z,101176.00
2022-12-20T00:21:36.635Z,101170.13
2022-12-20T00:24:05.801Z,101162.19
2022-12-20T00:26:35.393Z,101165.56
2022-12-20T00:29:03.212Z,101166.72
2022-12-20T00:31:32.508Z,101152.69
2022-12-20T00:34:01.832Z,101153.81
2022-12-20T00:36:32.183Z,101149.94
2022-12-20T00:39:01.121Z,101155.88
2022-12-20T00:41:32.374Z,101152.31
2022-12-20T00:44:00.447Z,101147.06
2022-12-20T00:46:29.303Z,101150.81
2022-12-20T00:48:57.184Z,101142.03
2022-12-20T00:51:27.655Z,101141.25
2022-12-20T00:53:56.047Z,101140.19
2022-12-20T00:56:24.053Z,101145.50
2022-12-20T00:58:54.612Z,101138.78
2022-12-20T01:01:26.035Z,101136.25
2022-12-20T01:03:54.488Z,101140.69
2022-12-20T01:06:25.096Z,101132.63
2022-12-20T01:08:54.050Z,101123.31
2022-12-20T01:11:24.921Z,101120.13
2022-12-20T01:13:56.105Z,101120.06
2022-12-20T01:16:34.494Z,101118.56
2022-12-20T01:19:03.170Z,101115.00
2022-12-20T01:21:31.587Z,101114.84
2022-12-20T01:23:59.450Z,101104.72
2022-12-20T01:26:29.363Z,101107.56
2022-12-20T01:29:00.333Z,101111.97
2022-12-20T01:31:30.096Z,101101.44
2022-12-20T01:33:58.791Z,101107.78
2022-12-20T01:36:34.128Z,101099.84
2022-12-20T01:39:06.557Z,101090.97
2022-12-20T01:41:36.683Z,101088.13
2022-12-20T01:44:27.397Z,101091.34
2022-12-20T01:46:55.503Z,101091.34
2022-12-20T01:49:48.794Z,101081.16
2022-12-20T01:52:28.015Z,101074.72
2022-12-20T01:55:13.919Z,101059.09
2022-12-20T01:57:51.844Z,101054.72
2022-12-20T02:00:20.444Z,101054.38
2022-12-20T02:02:50.770Z,101053.25
2022-12-20T02:05:21.521Z,101047.34
2022-12-20T02:07:52.916Z,101048.44
2022-12-20T02:10:24.091Z,101048.50
2022-12-20T02:13:03.855Z,101034.56
2022-12-20T02:15:55.099Z,101030.50
2022-12-20T02:18:33.765Z,101022.00
2022-12-20T02:21:35.449Z,101010.66
2022-12-20T02:24:41.685Z,101004.28
2022-12-20T02:27:21.024Z,101010.44
2022-12-20T02:30:09.218Z,101006.91
2022-12-20T02:32:52.078Z,101010.31
2022-12-20T02:35:27.198Z,101013.91
2022-12-20T02:37:58.619Z,101015.56
2022-12-20T02:40:39.958Z,101008.69
2022-12-20T02:43:29.514Z,101006.25
2022-12-20T02:46:01.525Z,101005.41
2022-12-20T02:48:36.737Z,101003.78
2022-12-20T02:51:08.871Z,100997.06
2022-12-20T02:53:39.077Z,100998.13
2022-12-20T02:56:23.246Z,100991.97
2022-12-20T02:59:13.652Z,100998.03
2022-12-20T03:01:48.824Z,100991.44
2022-12-20T03:04:18.808Z,100992.22
2022-12-20T03:07:04.020Z,100993.16
2022-12-20T03:09:34.016Z,100991.75
2022-12-20T03:12:02.683Z,100986.47
2022-12-20T03:14:31.936Z,100986.44
2022-12-20T03:17:02.570Z,100978.00
2022-12-20T03:19:30.823Z,100980.00
2022-12-20T03:21:59.636Z,100972.22
2022-12-20T03:24:27.537Z,100968.00
2022-12-20T03:26:56.584Z,100977.50
2022-12-20T03:29:25.682Z,100972.06
2022-12-20T03:31:53.937Z,100972.94
2022-12-20T03:34:21.906Z,100962.19
2022-12-20T03:36:50.190Z,100982.72
2022-12-20T03:39:18.017Z,100989.53
2022-12-20T03:41:46.267Z,100985.22
2022-12-20T03:44:18.188Z,100984.44
2022-12-20T03:46:46.640Z,100963.06
2022-12-20T03:49:14.499Z,100974.25
2022-12-20T03:51:47.945Z,100960.72
2022-12-20T03:54:15.681Z,100952.97
2022-12-20T03:57:02.168Z,100947.81
2022-12-20T03:59:30.853Z,100962.22
2022-12-20T04:01:59.795Z,100962.19
2022-12-20T04:04:30.310Z,100971.00
2022-12-20T04:06:58.431Z,100965.88
2022-12-20T04:09:26.871Z,100964.03
2022-12-20T04:12:01.491Z,100975.34
2022-12-20T04:14:30.713Z,100978.72
2022-12-20T04:16:58.704Z,100974.53
2022-12-20T04:19:26.396Z,100982.13
2022-12-20T04:22:02.700Z,100974.56
2022-12-20T04:24:42.831Z,100974.72
2022-12-20T04:27:24.149Z,100972.81
2022-12-20T04:29:54.191Z,100965.13
2022-12-20T04:32:23.429Z,100948.75
2022-12-20T04:34:51.716Z,100947.94
2022-12-20T04:37:20.752Z,100931.41
2022-12-20T04:39:53.513Z,100926.41
2022-12-20T04:42:26.741Z,100926.63
2022-12-20T04:44:55.926Z,100931.59
2022-12-20T04:47:27.690Z,100936.00
2022-12-20T04:49:56.276Z,100929.69
2022-12-20T04:52:47.647Z,100943.56
2022-12-20T04:55:16.480Z,100943.44
2022-12-20T04:57:45.066Z,100946.16
2022-12-20T05:00:15.827Z,100943.91
2022-12-20T05:02:47.489Z,100947.13
2022-12-20T05:05:18.999Z,100939.31
2022-12-20T05:07:52.672Z,100952.22
2022-12-20T05:10:20.917Z,100947.13
2022-12-20T05:12:50.025Z,100943.66
2022-12-20T05:15:28.257Z,100948.72
2022-12-20T05:17:59.811Z,100950.50
2022-12-20T05:20:35.230Z,100944.44
2022-12-20T05:23:22.919Z,100931.47
2022-12-20T05:26:14.561Z,100927.06
2022-12-20T05:28:43.333Z,100931.47
2022-12-20T05:31:11.272Z,100928.16
2022-12-20T05:33:39.386Z,100935.00
2022-12-20T05:36:07.456Z,100926.31
2022-12-20T05:38:35.695Z,100926.41
2022-12-20T05:41:06.910Z,100924.84
2022-12-20T05:43:35.386Z,100926.44
2022-12-20T05:46:04.711Z,100914.69
2022-12-20T05:48:42.601Z,100912.97
2022-12-20T05:51:11.581Z,100912.09
2022-12-20T05:53:58.157Z,100921.44
2022-12-20T05:56:44.331Z,100931.03
2022-12-20T05:59:13.824Z,100935.22
2022-12-20T06:01:43.451Z,100924.00
2022-12-20T06:04:12.394Z,100927.59
2022-12-20T06:06:41.554Z,100906.88
2022-12-20T06:09:12.064Z,100915.47
2022-12-20T06:11:47.683Z,100916.44
2022-12-20T06:14:16.595Z,100925.19
2022-12-20T06:16:49.029Z,100924.31
2022-12-20T06:19:21.582Z,100929.47
2022-12-20T06:21:53.049Z,100926.88
2022-12-20T06:24:28.448Z,100931.38
2022-12-20T06:26:56.497Z,100927.78
2022-12-20T06:29:26.599Z,100944.84
2022-12-20T06:32:05.537Z,100934.56
2022-12-20T06:34:33.954Z,100932.78
2022-12-20T06:37:02.771Z,100928.56
2022-12-20T06:39:34.138Z,100933.00
2022-12-20T06:42:07.092Z,100928.72
2022-12-20T06:44:36.685Z,100921.66
2022-12-20T06:47:04.575Z,100928.53
2022-12-20T06:49:32.600Z,100934.53
2022-12-20T06:52:00.545Z,100931.13
2022-12-20T06:54:44.010Z,100932.94
2022-12-20T06:57:14.464Z,100928.75
2022-12-20T06:59:44.764Z,100922.63
2022-12-20T07:02:12.943Z,100936.28
2022-12-20T07:04:41.103Z,100933.78
2022-12-20T07:07:08.970Z,100938.09
2022-12-20T07:09:37.988Z,100929.63
2022-12-20T07:12:05.869Z,100939.94
2022-12-20T07:14:33.843Z,100937.47
2022-12-20T07:17:01.701Z,100939.31
2022-12-20T07:19:29.946Z,100943.56
2022-12-20T07:21:57.648Z,100935.78
2022-12-20T07:24:25.690Z,100935.72
2022-12-20T07:26:54.133Z,100929.81
2022-12-20T07:29:22.124Z,100938.41
2022-12-20T07:31:50.074Z,100948.03
2022-12-20T07:34:18.970Z,100942.09
2022-12-20T07:36:46.749Z,100949.09
2022-12-20T07:39:14.676Z,100937.97
2022-12-20T07:41:42.708Z,100937.91
2022-12-20T07:44:16.779Z,100936.97
2022-12-20T07:46:44.693Z,100932.78
2022-12-20T07:49:12.699Z,100936.22
2022-12-20T07:51:48.718Z,100932.75
2022-12-20T07:54:22.058Z,100929.59
2022-12-20T07:56:55.022Z,100938.78
2022-12-20T07:59:28.320Z,100937.31
2022-12-20T08:02:02.271Z,100928.69
2022-12-20T08:04:34.241Z,100931.31
2022-12-20T08:07:02.646Z,100929.53
2022-12-20T08:09:36.302Z,100937.47
2022-12-20T08:12:04.521Z,100938.28
2022-12-20T08:14:32.684Z,100931.41
2022-12-20T08:17:00.701Z,100933.13
2022-12-20T08:19:32.533Z,100943.44
2022-12-20T08:22:00.781Z,100934.97
2022-12-20T08:24:28.721Z,100935.09
2022-12-20T08:26:56.546Z,100935.13
2022-12-20T08:29:24.697Z,100932.56
2022-12-20T08:31:52.471Z,100932.53
2022-12-20T08:34:20.458Z,100917.84
2022-12-20T08:36:48.213Z,100923.00
2022-12-20T08:39:16.183Z,100923.91
2022-12-20T08:41:43.898Z,100924.78
2022-12-20T08:44:11.903Z,100926.47
2022-12-20T08:46:39.979Z,100916.09
2022-12-20T08:49:08.000Z,100906.69
2022-12-20T08:51:35.835Z,100910.16
2022-12-20T08:54:03.981Z,100910.34
2022-12-20T08:56:31.718Z,100906.78
2022-12-20T08:58:59.834Z,100908.53
2022-12-20T09:01:30.036Z,100914.63
2022-12-20T09:03:58.303Z,100915.63
2022-12-20T09:06:26.158Z,100913.91
2022-12-20T09:08:55.682Z,100914.00
2022-12-20T09:11:25.788Z,100914.91
2022-12-20T09:13:55.719Z,100921.81
2022-12-20T09:16:32.398Z,100913.22
2022-12-20T09:19:05.640Z,100905.50
2022-12-20T09:21:35.433Z,100918.41
2022-12-20T09:24:03.536Z,100914.16
2022-12-20T09:26:31.202Z,100919.44
2022-12-20T09:28:59.272Z,100911.66
2022-12-20T09:31:27.408Z,100907.34
2022-12-20T09:33:57.976Z,100913.34
2022-12-20T09:36:28.094Z,100910.78
2022-12-20T09:38:57.377Z,100908.19
2022-12-20T09:41:38.158Z,100909.91
2022-12-20T09:44:37.185Z,100922.03
2022-12-20T09:47:15.489Z,100913.38
2022-12-20T09:49:47.289Z,100903.00
2022-12-20T09:52:17.928Z,100892.38
2022-12-20T09:54:56.887Z,100868.03
2022-12-20T09:57:27.720Z,100889.75
2022-12-20T10:00:00.556Z,100887.09
2022-12-20T10:05:40.564Z,100903.41
2022-12-20T10:08:27.983Z,100902.47
2022-12-20T10:11:11.324Z,100897.69
2022-12-20T10:13:55.161Z,100900.59
2022-12-20T10:16:53.510Z,100894.88
2022-12-20T10:19:43.325Z,100889.56
2022-12-20T10:22:27.233Z,100888.72
2022-12-20T10:25:18.894Z,100895.72
2022-12-20T10:27:49.680Z,100897.03
2022-12-20T10:30:23.808Z,100899.75
2022-12-20T10:32:54.760Z,100894.69
2022-12-20T10:35:33.335Z,100890.88
2022-12-20T10:38:10.087Z,100894.66
2022-12-20T10:43:43.181Z,100883.56
2022-12-20T10:46:13.270Z,100888.13
2022-12-20T10:48:43.874Z,100882.09
2022-12-20T10:51:17.626Z,100880.41
2022-12-20T10:54:03.256Z,100870.94
2022-12-20T10:56:32.858Z,100868.34
2022-12-20T10:59:22.395Z,100849.41
2022-12-20T11:01:50.911Z,100855.41
2022-12-20T11:04:34.705Z,100858.00
2022-12-20T11:07:22.349Z,100850.22
2022-12-20T11:09:57.210Z,100850.22
2022-12-20T11:12:25.292Z,100844.19
2022-12-20T11:15:10.061Z,100842.50
2022-12-20T11:17:50.177Z,100816.59
2022-12-20T11:21:00.954Z,100832.06
2022-12-20T11:23:41.766Z,100816.50
2022-12-20T11:26:30.828Z,100813.94
2022-12-20T11:29:25.595Z,100801.03
2022-12-20T11:32:21.392Z,100795.03
2022-12-20T11:35:11.783Z,100800.22
2022-12-20T11:37:51.113Z,100808.03
2022-12-20T11:40:30.693Z,100809.75
2022-12-20T11:43:14.636Z,100814.94
2022-12-20T11:45:54.433Z,100808.84
2022-12-20T11:48:37.092Z,100808.84
2022-12-20T11:51:17.407Z,100801.06
2022-12-20T11:54:06.613Z,100798.47
2022-12-20T11:56:43.979Z,100796.75
2022-12-20T11:59:19.219Z,100801.06
2022-12-20T12:01:50.398Z,100797.63
2022-12-20T12:04:30.230Z,100801.97
2022-12-20T12:07:14.320Z,100799.38
2022-12-20T12:09:44.903Z,100799.38
2022-12-20T12:12:24.107Z,100795.06
2022-12-20T12:15:24.822Z,100789.03
2022-12-20T12:18:11.000Z,100801.13
2022-12-20T12:20:56.836Z,100790.75
2022-12-20T12:23:36.664Z,100782.09
2022-12-20T12:26:26.087Z,100788.09
2022-12-20T12:29:06.537Z,100791.53
2022-12-20T12:31:43.709Z,100790.59
2022-12-20T12:34:14.626Z,100796.53
2022-12-20T12:36:57.641Z,100797.38
2022-12-20T12:39:31.463Z,100785.31
2022-12-20T12:42:18.533Z,100786.94
2022-12-20T12:44:58.813Z,100789.59
2022-12-20T12:47:47.785Z,100788.63
2022-12-20T12:50:28.233Z,100795.59
2022-12-20T12:52:59.091Z,100802.59
2022-12-20T12:55:47.716Z,100802.41
2022-12-20T12:58:24.887Z,100800.75
2022-12-20T13:01:09.282Z,100787.81
2022-12-20T13:03:41.213Z,100781.09
2022-12-20T13:06:28.121Z,100781.13
2022-12-20T13:09:05.171Z,100778.56
2022-12-20T13:11:46.548Z,100794.16
2022-12-20T13:14:18.221Z,100813.19
2022-12-20T13:19:40.521Z,100814.03
2022-12-20T13:22:16.730Z,100807.16
2022-12-20T13:25:03.562Z,100820.97
2022-12-20T13:34:31.400Z,100820.09
2022-12-20T13:37:31.398Z,100827.03
2022-12-20T13:45:29.935Z,100824.41
2022-12-20T14:09:14.013Z,100820.91
2022-12-20T14:41:27.113Z,100798.38
2022-12-20T14:44:37.850Z,100785.44
2022-12-20T14:47:16.510Z,100788.97
2022-12-20T14:50:00.842Z,100788.97
2022-12-20T14:52:33.837Z,100791.50
2022-12-20T14:55:24.958Z,100793.19
2022-12-20T14:57:55.920Z,100788.03
2022-12-20T15:00:23.660Z,100782.00
2022-12-20T15:03:00.744Z,100779.47
2022-12-20T15:05:39.379Z,100776.81
2022-12-20T15:08:34.250Z,100776.84
2022-12-20T15:11:10.873Z,100780.25
2022-12-20T15:13:46.748Z,100765.56
2022-12-20T15:16:20.150Z,100761.22
2022-12-20T15:18:49.745Z,100756.06
2022-12-20T15:21:37.344Z,100754.34
2022-12-20T15:24:11.722Z,100754.28
2022-12-20T15:26:40.023Z,100753.38
2022-12-20T15:29:12.711Z,100751.59
2022-12-20T15:31:40.418Z,100745.59
2022-12-20T15:34:31.148Z,100752.47
2022-12-20T15:37:00.311Z,100754.22
2022-12-20T15:39:29.424Z,100756.78
2022-12-20T15:41:58.417Z,100756.72
2022-12-20T15:44:30.388Z,100754.19
2022-12-20T15:46:58.062Z,100759.25
2022-12-20T15:49:31.383Z,100760.16
2022-12-20T15:51:59.771Z,100751.53
2022-12-20T15:54:33.596Z,100743.84
2022-12-20T15:57:09.325Z,100747.28
2022-12-20T16:02:28.438Z,100746.47
2022-12-20T16:04:57.651Z,100735.31
2022-12-20T16:07:25.628Z,100744.75
2022-12-20T16:09:54.177Z,100739.56
2022-12-20T16:12:29.523Z,100749.06
2022-12-20T16:14:57.594Z,100743.91
2022-12-20T16:17:25.813Z,100745.59
2022-12-20T16:19:53.830Z,100747.34
2022-12-20T16:22:24.066Z,100734.47
2022-12-20T16:24:52.326Z,100745.63
2022-12-20T16:27:20.587Z,100736.97
2022-12-20T16:29:48.502Z,100736.22
2022-12-20T16:32:18.069Z,100738.69
2022-12-20T16:34:46.900Z,100736.97
2022-12-20T16:37:14.645Z,100738.72
2022-12-20T16:39:43.198Z,100747.34
2022-12-20T16:42:16.411Z,100749.97
2022-12-20T16:44:45.486Z,100752.53
2022-12-20T16:47:14.823Z,100724.94
2022-12-20T16:49:51.564Z,100746.50
2022-12-20T16:52:22.032Z,100740.47
2022-12-20T16:54:50.801Z,100738.81
2022-12-20T16:57:19.029Z,100741.38
2022-12-20T16:59:47.048Z,100732.81
2022-12-20T17:02:26.166Z,100738.84
2022-12-20T17:04:54.457Z,100731.06
2022-12-20T17:07:22.606Z,100723.34
2022-12-20T17:12:36.160Z,100731.94
2022-12-20T17:15:05.333Z,100740.56
2022-12-20T17:17:33.001Z,100737.16
2022-12-20T17:20:01.134Z,100727.69
2022-12-20T17:25:23.241Z,100697.50
2022-12-20T17:27:51.737Z,100728.56
2022-12-20T17:30:20.111Z,100730.25
2022-12-20T17:32:47.971Z,100725.97
2022-12-20T17:35:25.894Z,100707.91
2022-12-20T17:37:56.082Z,100706.16
2022-12-20T17:40:28.325Z,100701.88
2022-12-20T17:42:56.433Z,100678.56
2022-12-20T17:45:33.062Z,100663.06
2022-12-20T17:48:00.874Z,100681.13
2022-12-20T17:50:28.952Z,100696.66
2022-12-20T17:52:56.798Z,100689.75
2022-12-20T17:55:28.900Z,100708.72
2022-12-20T17:57:57.090Z,100707.84
2022-12-20T18:00:38.524Z,100703.56
2022-12-20T18:03:07.536Z,100711.28
2022-12-20T18:05:35.645Z,100710.44
2022-12-20T18:08:03.380Z,100702.69
2022-12-20T18:10:31.509Z,100700.97
2022-12-20T18:12:59.177Z,100688.94
2022-12-20T18:15:27.190Z,100700.09
2022-12-20T18:17:54.985Z,100694.97
2022-12-20T18:20:23.282Z,100704.44
2022-12-20T18:22:50.899Z,100703.56
2022-12-20T18:25:18.881Z,100702.72
2022-12-20T18:27:46.581Z,100693.22
2022-12-20T18:30:14.783Z,100680.31
2022-12-20T18:32:42.603Z,100680.31
2022-12-20T18:35:10.936Z,100673.41
2022-12-20T18:37:38.616Z,100673.41
2022-12-20T18:40:07.285Z,100664.81
2022-12-20T18:42:35.009Z,100685.47
2022-12-20T18:45:03.081Z,100694.06
2022-12-20T18:47:32.441Z,100690.63
2022-12-20T18:50:00.349Z,100675.97
2022-12-20T18:52:28.015Z,100664.78
2022-12-20T18:54:56.702Z,100673.41
2022-12-20T18:57:24.355Z,100663.06
2022-12-20T18:59:52.306Z,100671.69
2022-12-20T19:02:20.169Z,100672.53
2022-12-20T19:04:48.265Z,100676.00
2022-12-20T19:07:16.231Z,100668.25
2022-12-20T19:09:44.282Z,100686.34
2022-12-20T19:12:12.158Z,100683.75
2022-12-20T19:14:40.039Z,100680.31
2022-12-20T19:17:07.807Z,100683.75
2022-12-20T19:19:35.853Z,100679.44
2022-12-20T19:22:03.513Z,100675.16
2022-12-20T19:24:31.516Z,100675.16
2022-12-20T19:26:59.367Z,100669.97
2022-12-20T19:29:27.387Z,100682.91
2022-12-20T19:31:55.485Z,100680.31
2022-12-20T19:34:23.469Z,100687.19
2022-12-20T19:36:51.922Z,100690.63
2022-12-20T19:39:22.451Z,100693.25
2022-12-20T19:44:39.678Z,100695.84
2022-12-20T19:47:07.540Z,100669.06
2022-12-20T19:49:36.469Z,100683.75
2022-12-20T19:52:05.900Z,100661.31
2022-12-20T19:54:35.430Z,100663.94
2022-12-20T19:57:03.351Z,100649.28
2022-12-20T19:59:31.540Z,100648.41
2022-12-20T20:01:59.522Z,100656.19
2022-12-20T20:04:28.221Z,100649.25
2022-12-20T20:06:56.535Z,100651.00
2022-12-20T20:09:24.851Z,100660.44
2022-12-20T20:11:52.577Z,100660.47
2022-12-20T20:14:20.619Z,100648.41
2022-12-20T20:16:48.626Z,100642.38
2022-12-20T20:19:16.726Z,100628.56
2022-12-20T20:21:44.540Z,100639.78
2022-12-20T20:24:12.725Z,100641.50
2022-12-20T20:26:40.429Z,100641.47
2022-12-20T20:29:10.468Z,100651.00
2022-12-20T20:31:38.792Z,100653.56
2022-12-20T20:34:06.851Z,100630.28
2022-12-20T20:36:34.703Z,100622.50
2022-12-20T20:39:02.656Z,100616.47
2022-12-20T20:41:31.486Z,100612.19
2022-12-20T20:43:59.457Z,100613.03
2022-12-20T20:46:27.197Z,100617.38
2022-12-20T20:48:55.190Z,100613.06
2022-12-20T20:51:22.915Z,100610.47
2022-12-20T20:53:50.874Z,100607.00
2022-12-20T20:56:18.527Z,100599.25
2022-12-20T20:58:46.812Z,100613.91
2022-12-20T21:01:14.436Z,100611.31
2022-12-20T21:03:43.042Z,100609.59
2022-12-20T21:08:59.822Z,100613.06
2022-12-20T21:11:28.510Z,100614.78
2022-12-20T21:13:56.311Z,100623.41
2022-12-20T21:16:24.676Z,100622.50
2022-12-20T21:18:57.872Z,100607.88
2022-12-20T21:21:26.747Z,100597.53
2022-12-20T21:23:55.759Z,100598.38
2022-12-20T21:26:25.343Z,100591.50
2022-12-20T21:28:57.917Z,100603.56
2022-12-20T21:31:26.236Z,100598.38
2022-12-20T21:33:54.351Z,100610.47
2022-12-20T21:36:22.605Z,100605.28
2022-12-20T21:38:55.966Z,100600.97
2022-12-20T21:41:26.794Z,100606.13
2022-12-20T21:43:58.922Z,100594.09
2022-12-20T21:46:28.802Z,100594.06
2022-12-20T21:48:56.685Z,100589.78
2022-12-20T21:51:26.817Z,100590.63
2022-12-20T21:53:58.361Z,100594.09
2022-12-20T21:56:29.175Z,100594.09
2022-12-20T21:58:57.541Z,100594.06
2022-12-20T22:01:27.766Z,100598.38
2022-12-20T22:04:00.152Z,100573.38
2022-12-20T22:06:28.442Z,100590.63
2022-12-20T22:09:06.756Z,100577.69
2022-12-20T22:11:35.835Z,100582.03
2022-12-20T22:14:03.671Z,100578.59
2022-12-20T22:16:32.400Z,100575.97
2022-12-20T22:19:01.120Z,100569.94
2022-12-20T22:21:31.407Z,100566.50
2022-12-20T22:24:00.502Z,100566.50
2022-12-20T22:26:31.302Z,100558.75
2022-12-20T22:29:04.848Z,100535.47
2022-12-20T22:31:35.187Z,100552.72
2022-12-20T22:34:03.044Z,100554.41
2022-12-20T22:36:31.059Z,100551.84
2022-12-20T22:38:58.978Z,100564.75
2022-12-20T22:41:32.636Z,100559.56
2022-12-20T22:44:00.771Z,100551.81
2022-12-20T22:49:18.253Z,100544.06
2022-12-20T22:51:55.120Z,100547.50
2022-12-20T22:54:34.267Z,100550.09
2022-12-20T22:57:02.190Z,100551.84
2022-12-20T22:59:29.748Z,100547.50
2022-12-20T23:01:57.804Z,100538.94
2022-12-20T23:04:25.666Z,100539.78
2022-12-20T23:06:53.642Z,100537.22
2022-12-20T23:09:23.311Z,100537.19
2022-12-20T23:12:10.216Z,100521.69
2022-12-20T23:15:03.409Z,100525.16
2022-12-20T23:17:33.295Z,100524.28
2022-12-20T23:20:19.390Z,100513.94
2022-12-20T23:22:47.321Z,100510.50
2022-12-20T23:25:18.140Z,100513.91
2022-12-20T23:27:48.837Z,100499.28
2022-12-20T23:30:20.505Z,100501.88
2022-12-20T23:32:49.084Z,100500.16
2022-12-20T23:35:19.038Z,100491.53
2022-12-20T23:37:47.220Z,100498.44
2022-12-20T23:40:16.414Z,100501.88
2022-12-20T23:42:44.939Z,100499.28
2022-12-20T23:45:12.784Z,100495.84
2022-12-20T23:47:40.654Z,100479.47
2022-12-20T23:50:08.966Z,100476.91
2022-12-20T23:52:36.916Z,100471.72
2022-12-20T23:55:04.829Z,100464.81
2022-12-20T23:57:33.173Z,100461.34
